METAR Analyzer

List View

Hello, Guest. (Login)

RJCC/CTS  -  札幌/新千歳

Obs at
2021-08-04 23:30 (UTC) (43min ago)
Temp
27
Dew-pt
25
T-Td
2
RH
88.8%
QNH
1007hPa
Est. Station Pressure
1004.0hPa
Est. SLP
1006.9hPa
Feels like
22.6
(no wind)
27.2
HI
30.9
Temp chg in 24h
-1
Feels-like chg in 24h
-2.5
HI chg in 24h
-1
H-Vis
>10000m
V-Vis
No data
CIG
No dense clouds
V/I
VMC (VFR)
RVR
No RVR data
Wind
7kt from 150°
Gust
No gust
Precipitation
Not reported
Other Wx
Not reported
Clouds
Few clouds @ 600ft AGL / Scattered clouds @ unknown height

RJCC 042330Z 15007KT 9999 FEW006 SCT/// 27/25 Q1007

RJTT/HND  -  東京/羽田

Obs at
2021-08-05 00:00 (UTC) (13min ago)
Temp
30
Dew-pt
25
T-Td
5
RH
74.6%
QNH
1008hPa
Est. Station Pressure
1007.3hPa
Est. SLP
1008.0hPa
Feels like
26.2
(no wind)
28.7
HI
36.2
Temp chg in 24h
-1
Feels-like chg in 24h
-0.2
HI chg in 24h
-2.9
H-Vis
>10000m
V-Vis
No data
CIG
No dense clouds
V/I
VMC (VFR)
RVR
No RVR data
Wind
4kt from 80°
Gust
No gust
Precipitation
Not reported
Other Wx
Not reported
Clouds
Few clouds @ 2000ft AGL

RJTT 050000Z 08004KT 9999 FEW020 30/25 Q1008 NOSIG

RJAA/NRT  -  東京/成田

Obs at
2021-08-05 00:00 (UTC) (13min ago)
Temp
29
Dew-pt
24
T-Td
5
RH
74.5%
QNH
1009.1hPa
Est. Station Pressure
1007.8hPa
Est. SLP
1009.1hPa
Feels like
24.8
(no wind)
27.9
HI
33.6
Temp chg in 24h
±0
Feels-like chg in 24h
-0.6
HI chg in 24h
-0.9
H-Vis
>10000m
V-Vis
No data
CIG
No dense clouds
V/I
VMC (VFR)
RVR
No RVR data
Wind
5kt from 80° (20° ~ 190°)
Gust
No gust
Precipitation
Not reported
Other Wx
Not reported
Clouds
Few (2/8) Cumulus @ 2000ft AGL

RJAA 050000Z 08005KT 020V190 9999 FEW020 29/24 Q1009 NOSIG RMK 2CU020 A2980

RJGG/NGO  -  名古屋/中部

Obs at
2021-08-04 23:30 (UTC) (43min ago)
Temp
29
Dew-pt
26
T-Td
3
RH
83.9%
QNH
1007.8hPa
Est. Station Pressure
1007.3hPa
Est. SLP
1007.8hPa
Feels like
26.5
(no wind)
28.6
HI
35.6
Temp chg in 24h
+1
Feels-like chg in 24h
+2.6
HI chg in 24h
+2.9
H-Vis
>10000m
V-Vis
No data
CIG
No dense clouds
V/I
VMC (VFR)
RVR
No RVR data
Wind
2kt from VRB
Gust
No gust
Precipitation
Not reported
Other Wx
Not reported
Clouds
Few (1/8) Cumulus @ 1000ft AGL

RJGG 042330Z VRB02KT 9999 FEW010 29/26 Q1007 BECMG 22005KT RMK 1CU010 A2976

RJOO/ITM  -  大阪/伊丹

Obs at
2021-08-05 00:00 (UTC) (13min ago)
Temp
31
Dew-pt
25
T-Td
6
RH
70.5%
QNH
1007hPa
Est. Station Pressure
1005.6hPa
Est. SLP
1007.0hPa
Feels like
27.3
(no wind)
29.1
HI
37.7
Temp chg in 24h
±0
Feels-like chg in 24h
+0.5
HI chg in 24h
±0
H-Vis
>10000m
V-Vis
No data
CIG
No dense clouds
V/I
VMC (VFR)
RVR
No RVR data
Wind
3kt from VRB
Gust
No gust
Precipitation
Not reported
Other Wx
Not reported
Clouds
Few clouds @ 2000ft AGL

RJOO 050000Z VRB03KT 9999 FEW020 31/25 Q1007

RJBB/KIX  -  大阪/関西

Obs at
2021-08-04 23:30 (UTC) (43min ago)
Temp
27
Dew-pt
25
T-Td
2
RH
88.8%
QNH
1008hPa
Est. Station Pressure
1007.4hPa
Est. SLP
1008.0hPa
Feels like
23.2
(no wind)
27.2
HI
30.9
Temp chg in 24h
-1
Feels-like chg in 24h
-0.4
HI chg in 24h
-1
H-Vis
>10000m
V-Vis
No data
CIG
No dense clouds
V/I
VMC (VFR)
RVR
No RVR data
Wind
5kt from 330°
Gust
No gust
Precipitation
Not reported
Other Wx
Not reported
Clouds
Few clouds @ 1000ft AGL

RJBB 042330Z 33005KT 9999 FEW010 27/25 Q1008 BECMG 30005KT

RJFF/FUK  -  福岡

Obs at
2021-08-04 23:30 (UTC) (43min ago)
Temp
30
Dew-pt
23
T-Td
7
RH
66.2%
QNH
1006.4hPa
Est. Station Pressure
1005.3hPa
Est. SLP
1006.3hPa
Feels like
25.2
(no wind)
28
HI
34.1
Temp chg in 24h
±0
Feels-like chg in 24h
-0.8
HI chg in 24h
+0.8
H-Vis
>10000m
V-Vis
No data
CIG
No dense clouds
V/I
VMC (VFR)
RVR
No RVR data
Wind
6kt from 150°
Gust
No gust
Precipitation
Not reported
Other Wx
Not reported
Clouds
Few (1/8) Cumulus @ 2500ft AGL

RJFF 042330Z 15006KT 9999 FEW025 30/23 Q1006 NOSIG RMK 1CU025 A2972

ROAH/OKA  -  那覇

Obs at
2021-08-05 00:00 (UTC) (13min ago)
Temp
26
Dew-pt
26
T-Td
0
RH
100%
QNH
996hPa
Est. Station Pressure
995.6hPa
Est. SLP
995.9hPa
Feels like
20.8
(no wind)
27.1
HI
27.3
Temp chg in 24h
-3
Feels-like chg in 24h
-2.8
HI chg in 24h
-7.2
H-Vis
5000m
V-Vis
No data
CIG
No dense clouds
V/I
VMC (VFR)
RVR (R18L)
>2000m ()
RVR (R18R)
>2000m ()
Wind
12kt from 140° (100° ~ 170°)
Gust
No gust
Precipitation
Heavy Shower Rain
Other Wx
Not reported
Clouds
Few clouds @ 400ft AGL / Scattered clouds @ 800ft AGL / Few Cumulonimbus @ 2000ft AGL

ROAH 050000Z 14012KT 100V170 5000 R18L/P2000N R18R/P2000N +SHRA FEW004 SCT008 FEW020CB 26/26 Q0996

5.8msec